METAR Data
IDs: Format: Raw Decoded Include TAF

Data at: 1702 UTC 03 Dec 2021

EGTC 031650Z 22005KT 9999 BKN030 07/06 Q1001